sensor_id;sensor_type;location;lat;lon;timestamp;temperature;humidity
4406;DHT22;2216;53.806;11.598;2023-07-30T00:01:58;17.30;61.30
4406;DHT22;2216;53.806;11.598;2023-07-30T00:04:24;17.30;61.50
4406;DHT22;2216;53.806;11.598;2023-07-30T00:06:50;17.30;61.40
4406;DHT22;2216;53.806;11.598;2023-07-30T00:09:16;17.30;61.50
4406;DHT22;2216;53.806;11.598;2023-07-30T00:11:41;17.20;61.50
4406;DHT22;2216;53.806;11.598;2023-07-30T00:14:07;17.20;61.50
4406;DHT22;2216;53.806;11.598;2023-07-30T00:16:33;17.20;61.50
4406;DHT22;2216;53.806;11.598;2023-07-30T00:18:58;17.20;61.60
4406;DHT22;2216;53.806;11.598;2023-07-30T00:21:24;17.20;61.60
4406;DHT22;2216;53.806;11.598;2023-07-30T00:23:50;17.10;61.60
4406;DHT22;2216;53.806;11.598;2023-07-30T00:26:15;17.10;61.60
4406;DHT22;2216;53.806;11.598;2023-07-30T00:28:41;17.10;61.60
4406;DHT22;2216;53.806;11.598;2023-07-30T00:31:07;17.10;61.70
4406;DHT22;2216;53.806;11.598;2023-07-30T00:33:32;17.10;61.80
4406;DHT22;2216;53.806;11.598;2023-07-30T00:35:58;17.00;61.70
4406;DHT22;2216;53.806;11.598;2023-07-30T00:38:24;17.00;61.70
4406;DHT22;2216;53.806;11.598;2023-07-30T00:40:50;17.00;61.70
4406;DHT22;2216;53.806;11.598;2023-07-30T00:43:15;17.00;61.70
4406;DHT22;2216;53.806;11.598;2023-07-30T00:45:44;17.00;61.80
4406;DHT22;2216;53.806;11.598;2023-07-30T00:48:11;16.90;61.70
4406;DHT22;2216;53.806;11.598;2023-07-30T00:50:38;16.90;61.80
4406;DHT22;2216;53.806;11.598;2023-07-30T00:53:04;16.90;61.80
4406;DHT22;2216;53.806;11.598;2023-07-30T00:55:31;16.60;61.60
4406;DHT22;2216;53.806;11.598;2023-07-30T00:57:57;16.90;61.80
4406;DHT22;2216;53.806;11.598;2023-07-30T01:00:23;16.90;62.60
4406;DHT22;2216;53.806;11.598;2023-07-30T01:02:51;16.90;61.90
4406;DHT22;2216;53.806;11.598;2023-07-30T01:05:16;16.90;61.90
4406;DHT22;2216;53.806;11.598;2023-07-30T01:07:43;16.90;62.00
4406;DHT22;2216;53.806;11.598;2023-07-30T01:10:08;16.90;62.00
4406;DHT22;2216;53.806;11.598;2023-07-30T01:12:34;16.90;62.00
4406;DHT22;2216;53.806;11.598;2023-07-30T01:15:01;16.90;62.10
4406;DHT22;2216;53.806;11.598;2023-07-30T01:17:28;16.90;62.00
4406;DHT22;2216;53.806;11.598;2023-07-30T01:19:53;16.80;62.00
4406;DHT22;2216;53.806;11.598;2023-07-30T01:22:22;16.90;62.10
4406;DHT22;2216;53.806;11.598;2023-07-30T01:24:49;16.80;62.00
4406;DHT22;2216;53.806;11.598;2023-07-30T01:27:44;16.80;62.00
4406;DHT22;2216;53.806;11.598;2023-07-30T01:30:26;16.80;62.10
4406;DHT22;2216;53.806;11.598;2023-07-30T01:32:53;16.80;62.00
4406;DHT22;2216;53.806;11.598;2023-07-30T01:35:26;16.80;62.00
4406;DHT22;2216;53.806;11.598;2023-07-30T01:37:53;16.70;62.00
4406;DHT22;2216;53.806;11.598;2023-07-30T01:40:22;16.70;62.00
4406;DHT22;2216;53.806;11.598;2023-07-30T01:42:49;16.70;62.00
4406;DHT22;2216;53.806;11.598;2023-07-30T01:45:15;16.70;62.00
4406;DHT22;2216;53.806;11.598;2023-07-30T01:47:41;16.70;62.10
4406;DHT22;2216;53.806;11.598;2023-07-30T01:50:06;16.70;62.10
4406;DHT22;2216;53.806;11.598;2023-07-30T01:52:32;16.70;62.20
4406;DHT22;2216;53.806;11.598;2023-07-30T01:54:58;16.70;62.20
4406;DHT22;2216;53.806;11.598;2023-07-30T01:57:26;16.70;62.20
4406;DHT22;2216;53.806;11.598;2023-07-30T01:59:52;16.70;62.30
4406;DHT22;2216;53.806;11.598;2023-07-30T02:02:17;16.70;62.20
4406;DHT22;2216;53.806;11.598;2023-07-30T02:04:43;16.80;62.40
4406;DHT22;2216;53.806;11.598;2023-07-30T02:07:09;16.80;62.30
4406;DHT22;2216;53.806;11.598;2023-07-30T02:09:34;16.90;62.40
4406;DHT22;2216;53.806;11.598;2023-07-30T02:12:00;16.80;62.30
4406;DHT22;2216;53.806;11.598;2023-07-30T02:14:25;16.90;62.40
4406;DHT22;2216;53.806;11.598;2023-07-30T02:16:51;16.90;62.40
4406;DHT22;2216;53.806;11.598;2023-07-30T02:19:17;16.90;62.40
4406;DHT22;2216;53.806;11.598;2023-07-30T02:21:42;16.90;62.40
4406;DHT22;2216;53.806;11.598;2023-07-30T02:24:11;17.00;62.50
4406;DHT22;2216;53.806;11.598;2023-07-30T02:26:40;17.00;62.40
4406;DHT22;2216;53.806;11.598;2023-07-30T02:29:06;17.00;62.40
4406;DHT22;2216;53.806;11.598;2023-07-30T02:31:32;17.00;62.40
4406;DHT22;2216;53.806;11.598;2023-07-30T02:33:58;17.00;62.40
4406;DHT22;2216;53.806;11.598;2023-07-30T02:36:24;17.10;62.50
4406;DHT22;2216;53.806;11.598;2023-07-30T02:38:50;17.10;62.50
4406;DHT22;2216;53.806;11.598;2023-07-30T02:41:16;17.10;62.50
4406;DHT22;2216;53.806;11.598;2023-07-30T02:43:42;17.10;62.50
4406;DHT22;2216;53.806;11.598;2023-07-30T02:46:08;17.10;62.50
4406;DHT22;2216;53.806;11.598;2023-07-30T02:48:34;17.20;62.50
4406;DHT22;2216;53.806;11.598;2023-07-30T02:50:59;17.20;62.50
4406;DHT22;2216;53.806;11.598;2023-07-30T02:53:25;17.20;62.50
4406;DHT22;2216;53.806;11.598;2023-07-30T02:55:51;17.20;62.50
4406;DHT22;2216;53.806;11.598;2023-07-30T02:58:16;17.20;62.50
4406;DHT22;2216;53.806;11.598;2023-07-30T03:00:42;17.20;62.50
4406;DHT22;2216;53.806;11.598;2023-07-30T03:03:08;17.30;62.50
4406;DHT22;2216;53.806;11.598;2023-07-30T03:05:33;17.30;62.50
4406;DHT22;2216;53.806;11.598;2023-07-30T03:07:59;17.30;62.60
4406;DHT22;2216;53.806;11.598;2023-07-30T03:10:24;17.30;62.50
4406;DHT22;2216;53.806;11.598;2023-07-30T03:12:50;17.30;62.50
4406;DHT22;2216;53.806;11.598;2023-07-30T03:15:16;17.30;62.50
4406;DHT22;2216;53.806;11.598;2023-07-30T03:17:41;17.30;62.50
4406;DHT22;2216;53.806;11.598;2023-07-30T03:20:07;17.30;62.50
4406;DHT22;2216;53.806;11.598;2023-07-30T03:22:34;17.30;62.50
4406;DHT22;2216;53.806;11.598;2023-07-30T03:25:00;17.40;62.60
4406;DHT22;2216;53.806;11.598;2023-07-30T03:27:25;17.30;62.50
4406;DHT22;2216;53.806;11.598;2023-07-30T03:29:51;17.30;62.50
4406;DHT22;2216;53.806;11.598;2023-07-30T03:32:17;17.40;62.60
4406;DHT22;2216;53.806;11.598;2023-07-30T03:34:42;17.40;62.60
4406;DHT22;2216;53.806;11.598;2023-07-30T03:37:08;17.40;62.60
4406;DHT22;2216;53.806;11.598;2023-07-30T03:39:33;17.40;62.50
4406;DHT22;2216;53.806;11.598;2023-07-30T03:41:59;17.40;62.50
4406;DHT22;2216;53.806;11.598;2023-07-30T03:44:25;17.40;62.60
4406;DHT22;2216;53.806;11.598;2023-07-30T03:46:50;17.40;62.50
4406;DHT22;2216;53.806;11.598;2023-07-30T03:49:16;17.40;62.50
4406;DHT22;2216;53.806;11.598;2023-07-30T03:51:42;17.40;62.50
4406;DHT22;2216;53.806;11.598;2023-07-30T03:54:07;17.50;62.70
4406;DHT22;2216;53.806;11.598;2023-07-30T03:56:33;17.50;62.60
4406;DHT22;2216;53.806;11.598;2023-07-30T03:58:59;17.40;62.60
4406;DHT22;2216;53.806;11.598;2023-07-30T04:01:24;17.40;62.60
4406;DHT22;2216;53.806;11.598;2023-07-30T04:03:50;17.40;62.60
4406;DHT22;2216;53.806;11.598;2023-07-30T04:06:16;17.40;62.60
4406;DHT22;2216;53.806;11.598;2023-07-30T04:08:41;17.40;62.60
4406;DHT22;2216;53.806;11.598;2023-07-30T04:11:07;17.50;62.70
4406;DHT22;2216;53.806;11.598;2023-07-30T04:13:33;17.40;62.60
4406;DHT22;2216;53.806;11.598;2023-07-30T04:15:59;17.40;62.60
4406;DHT22;2216;53.806;11.598;2023-07-30T04:18:25;17.50;62.70
4406;DHT22;2216;53.806;11.598;2023-07-30T04:20:50;17.40;62.70
4406;DHT22;2216;53.806;11.598;2023-07-30T04:23:16;17.50;62.80
4406;DHT22;2216;53.806;11.598;2023-07-30T04:25:42;17.50;62.80
4406;DHT22;2216;53.806;11.598;2023-07-30T04:28:08;17.50;62.70
4406;DHT22;2216;53.806;11.598;2023-07-30T04:30:34;17.50;62.80
4406;DHT22;2216;53.806;11.598;2023-07-30T04:33:00;17.40;62.70
4406;DHT22;2216;53.806;11.598;2023-07-30T04:35:25;17.50;62.80
4406;DHT22;2216;53.806;11.598;2023-07-30T04:37:51;17.50;62.80
4406;DHT22;2216;53.806;11.598;2023-07-30T04:40:17;17.50;62.80
4406;DHT22;2216;53.806;11.598;2023-07-30T04:42:42;17.50;62.80
4406;DHT22;2216;53.806;11.598;2023-07-30T04:45:08;17.50;62.80
4406;DHT22;2216;53.806;11.598;2023-07-30T04:47:34;17.50;62.80
4406;DHT22;2216;53.806;11.598;2023-07-30T04:50:00;17.50;62.80
4406;DHT22;2216;53.806;11.598;2023-07-30T04:52:26;17.60;62.90
4406;DHT22;2216;53.806;11.598;2023-07-30T04:54:51;17.50;62.90
4406;DHT22;2216;53.806;11.598;2023-07-30T04:57:17;17.60;62.90
4406;DHT22;2216;53.806;11.598;2023-07-30T04:59:42;17.60;63.00
4406;DHT22;2216;53.806;11.598;2023-07-30T05:02:08;17.60;62.90
4406;DHT22;2216;53.806;11.598;2023-07-30T05:04:34;17.80;63.10
4406;DHT22;2216;53.806;11.598;2023-07-30T05:06:59;17.70;63.10
4406;DHT22;2216;53.806;11.598;2023-07-30T05:09:25;17.70;63.10
4406;DHT22;2216;53.806;11.598;2023-07-30T05:11:51;17.70;63.20
4406;DHT22;2216;53.806;11.598;2023-07-30T05:14:17;17.80;63.20
4406;DHT22;2216;53.806;11.598;2023-07-30T05:16:43;17.80;63.20
4406;DHT22;2216;53.806;11.598;2023-07-30T05:19:08;17.90;63.20
4406;DHT22;2216;53.806;11.598;2023-07-30T05:21:34;17.90;63.20
4406;DHT22;2216;53.806;11.598;2023-07-30T05:24:00;17.90;63.20
4406;DHT22;2216;53.806;11.598;2023-07-30T05:26:25;17.90;63.30
4406;DHT22;2216;53.806;11.598;2023-07-30T05:28:51;17.90;63.20
4406;DHT22;2216;53.806;11.598;2023-07-30T05:31:17;18.00;63.20
4406;DHT22;2216;53.806;11.598;2023-07-30T05:33:42;18.00;63.10
4406;DHT22;2216;53.806;11.598;2023-07-30T05:36:08;18.00;63.00
4406;DHT22;2216;53.806;11.598;2023-07-30T05:38:34;18.00;63.00
4406;DHT22;2216;53.806;11.598;2023-07-30T05:41:00;18.00;63.00
4406;DHT22;2216;53.806;11.598;2023-07-30T05:43:26;18.00;63.10
4406;DHT22;2216;53.806;11.598;2023-07-30T05:45:51;18.10;63.40
4406;DHT22;2216;53.806;11.598;2023-07-30T05:48:17;18.10;63.80
4406;DHT22;2216;53.806;11.598;2023-07-30T05:50:43;18.20;64.00
4406;DHT22;2216;53.806;11.598;2023-07-30T05:53:08;18.40;64.30
4406;DHT22;2216;53.806;11.598;2023-07-30T05:55:34;18.50;64.30
4406;DHT22;2216;53.806;11.598;2023-07-30T05:58:00;18.60;64.30
4406;DHT22;2216;53.806;11.598;2023-07-30T06:00:26;18.70;64.30
4406;DHT22;2216;53.806;11.598;2023-07-30T06:02:51;18.90;64.60
4406;DHT22;2216;53.806;11.598;2023-07-30T06:05:17;19.00;64.50
4406;DHT22;2216;53.806;11.598;2023-07-30T06:07:43;19.20;64.50
4406;DHT22;2216;53.806;11.598;2023-07-30T06:10:08;19.30;64.60
4406;DHT22;2216;53.806;11.598;2023-07-30T06:12:34;19.50;64.60
4406;DHT22;2216;53.806;11.598;2023-07-30T06:15:00;19.60;64.60
4406;DHT22;2216;53.806;11.598;2023-07-30T06:17:26;19.80;64.50
4406;DHT22;2216;53.806;11.598;2023-07-30T06:19:51;19.90;64.50
4406;DHT22;2216;53.806;11.598;2023-07-30T06:22:17;20.10;64.60
4406;DHT22;2216;53.806;11.598;2023-07-30T06:24:44;20.20;64.10
4406;DHT22;2216;53.806;11.598;2023-07-30T06:27:09;20.30;64.40
4406;DHT22;2216;53.806;11.598;2023-07-30T06:29:36;20.40;64.40
4406;DHT22;2216;53.806;11.598;2023-07-30T06:32:01;20.70;64.60
4406;DHT22;2216;53.806;11.598;2023-07-30T06:34:27;20.90;64.60
4406;DHT22;2216;53.806;11.598;2023-07-30T06:36:53;21.00;64.20
4406;DHT22;2216;53.806;11.598;2023-07-30T06:39:18;21.10;64.00
4406;DHT22;2216;53.806;11.598;2023-07-30T06:41:44;21.30;63.90
4406;DHT22;2216;53.806;11.598;2023-07-30T06:44:10;21.40;64.00
4406;DHT22;2216;53.806;11.598;2023-07-30T06:46:35;21.50;63.90
4406;DHT22;2216;53.806;11.598;2023-07-30T06:49:01;21.70;63.90
4406;DHT22;2216;53.806;11.598;2023-07-30T06:51:27;21.80;63.90
4406;DHT22;2216;53.806;11.598;2023-07-30T06:53:52;22.00;64.00
4406;DHT22;2216;53.806;11.598;2023-07-30T06:56:18;22.10;63.90
4406;DHT22;2216;53.806;11.598;2023-07-30T06:58:44;22.20;63.90
4406;DHT22;2216;53.806;11.598;2023-07-30T07:01:10;22.40;64.10
4406;DHT22;2216;53.806;11.598;2023-07-30T07:03:36;22.60;64.10
4406;DHT22;2216;53.806;11.598;2023-07-30T07:06:02;22.80;64.10
4406;DHT22;2216;53.806;11.598;2023-07-30T07:08:28;23.00;64.00
4406;DHT22;2216;53.806;11.598;2023-07-30T07:10:53;23.20;63.70
4406;DHT22;2216;53.806;11.598;2023-07-30T07:13:19;23.30;63.20
4406;DHT22;2216;53.806;11.598;2023-07-30T07:15:45;23.30;62.90
4406;DHT22;2216;53.806;11.598;2023-07-30T07:18:11;23.30;62.50
4406;DHT22;2216;53.806;11.598;2023-07-30T07:20:37;23.30;62.30
4406;DHT22;2216;53.806;11.598;2023-07-30T07:23:03;23.30;62.60
4406;DHT22;2216;53.806;11.598;2023-07-30T07:25:29;23.40;62.80
4406;DHT22;2216;53.806;11.598;2023-07-30T07:27:55;23.40;62.90
4406;DHT22;2216;53.806;11.598;2023-07-30T07:30:20;23.60;63.20
4406;DHT22;2216;53.806;11.598;2023-07-30T07:32:46;23.70;63.30
4406;DHT22;2216;53.806;11.598;2023-07-30T07:35:16;23.90;63.40
4406;DHT22;2216;53.806;11.598;2023-07-30T07:37:42;24.00;63.30
4406;DHT22;2216;53.806;11.598;2023-07-30T07:40:09;24.20;63.10
4406;DHT22;2216;53.806;11.598;2023-07-30T07:42:35;24.30;63.00
4406;DHT22;2216;53.806;11.598;2023-07-30T07:45:01;24.30;62.50
4406;DHT22;2216;53.806;11.598;2023-07-30T07:47:26;24.30;62.30
4406;DHT22;2216;53.806;11.598;2023-07-30T07:49:52;24.30;62.30
4406;DHT22;2216;53.806;11.598;2023-07-30T07:52:18;24.40;62.60
4406;DHT22;2216;53.806;11.598;2023-07-30T07:54:44;24.50;62.80
4406;DHT22;2216;53.806;11.598;2023-07-30T07:57:10;24.70;63.10
4406;DHT22;2216;53.806;11.598;2023-07-30T07:59:36;24.80;63.20
4406;DHT22;2216;53.806;11.598;2023-07-30T08:02:02;25.00;63.00
4406;DHT22;2216;53.806;11.598;2023-07-30T08:04:27;25.10;62.80
4406;DHT22;2216;53.806;11.598;2023-07-30T08:06:53;25.10;62.30
4406;DHT22;2216;53.806;11.598;2023-07-30T08:09:19;25.40;62.40
4406;DHT22;2216;53.806;11.598;2023-07-30T08:11:44;25.50;62.60
4406;DHT22;2216;53.806;11.598;2023-07-30T08:14:10;25.60;62.50
4406;DHT22;2216;53.806;11.598;2023-07-30T08:16:36;25.70;62.50
4406;DHT22;2216;53.806;11.598;2023-07-30T08:19:01;25.80;62.50
4406;DHT22;2216;53.806;11.598;2023-07-30T08:21:27;25.70;61.60
4406;DHT22;2216;53.806;11.598;2023-07-30T08:23:53;25.70;61.10
4406;DHT22;2216;53.806;11.598;2023-07-30T08:26:18;25.60;61.00
4406;DHT22;2216;53.806;11.598;2023-07-30T08:28:44;25.50;60.80
4406;DHT22;2216;53.806;11.598;2023-07-30T08:31:10;25.40;60.80
4406;DHT22;2216;53.806;11.598;2023-07-30T08:33:35;25.40;61.40
4406;DHT22;2216;53.806;11.598;2023-07-30T08:36:01;25.40;61.60
4406;DHT22;2216;53.806;11.598;2023-07-30T08:38:28;25.50;61.90
4406;DHT22;2216;53.806;11.598;2023-07-30T08:40:54;25.60;61.90
4406;DHT22;2216;53.806;11.598;2023-07-30T08:43:20;25.60;61.70
4406;DHT22;2216;53.806;11.598;2023-07-30T08:45:45;25.70;61.80
4406;DHT22;2216;53.806;11.598;2023-07-30T08:48:11;25.70;62.10
4406;DHT22;2216;53.806;11.598;2023-07-30T08:50:37;25.70;61.90
4406;DHT22;2216;53.806;11.598;2023-07-30T08:53:03;25.70;61.30
4406;DHT22;2216;53.806;11.598;2023-07-30T08:55:29;25.70;61.30
4406;DHT22;2216;53.806;11.598;2023-07-30T08:58:01;25.70;61.40
4406;DHT22;2216;53.806;11.598;2023-07-30T09:00:31;25.70;61.50
4406;DHT22;2216;53.806;11.598;2023-07-30T09:03:00;25.80;61.70
4406;DHT22;2216;53.806;11.598;2023-07-30T09:05:28;25.90;61.60
4406;DHT22;2216;53.806;11.598;2023-07-30T09:07:55;26.00;61.70
4406;DHT22;2216;53.806;11.598;2023-07-30T09:10:21;26.10;61.90
4406;DHT22;2216;53.806;11.598;2023-07-30T09:12:52;26.20;61.80
4406;DHT22;2216;53.806;11.598;2023-07-30T09:15:37;26.40;62.00
4406;DHT22;2216;53.806;11.598;2023-07-30T09:18:04;26.60;61.90
4406;DHT22;2216;53.806;11.598;2023-07-30T09:20:37;26.70;61.80
4406;DHT22;2216;53.806;11.598;2023-07-30T09:23:05;26.90;61.60
4406;DHT22;2216;53.806;11.598;2023-07-30T09:25:32;27.00;61.60
4406;DHT22;2216;53.806;11.598;2023-07-30T09:27:58;27.10;61.70
4406;DHT22;2216;53.806;11.598;2023-07-30T09:30:25;27.30;61.60
4406;DHT22;2216;53.806;11.598;2023-07-30T09:32:53;27.50;61.50
4406;DHT22;2216;53.806;11.598;2023-07-30T09:35:21;27.60;61.20
4406;DHT22;2216;53.806;11.598;2023-07-30T09:37:50;27.60;61.20
4406;DHT22;2216;53.806;11.598;2023-07-30T09:40:16;27.70;60.70
4406;DHT22;2216;53.806;11.598;2023-07-30T09:42:48;27.80;60.50
4406;DHT22;2216;53.806;11.598;2023-07-30T09:45:24;27.80;60.50
4406;DHT22;2216;53.806;11.598;2023-07-30T09:47:52;27.90;60.10
4406;DHT22;2216;53.806;11.598;2023-07-30T09:50:18;27.90;60.30
4406;DHT22;2216;53.806;11.598;2023-07-30T09:52:45;27.90;60.00
4406;DHT22;2216;53.806;11.598;2023-07-30T09:55:11;28.00;60.40
4406;DHT22;2216;53.806;11.598;2023-07-30T09:57:38;28.10;60.60
4406;DHT22;2216;53.806;11.598;2023-07-30T10:00:05;28.10;60.40
4406;DHT22;2216;53.806;11.598;2023-07-30T10:02:40;28.20;60.50
4406;DHT22;2216;53.806;11.598;2023-07-30T10:05:18;28.30;60.10
4406;DHT22;2216;53.806;11.598;2023-07-30T10:08:00;28.40;60.00
4406;DHT22;2216;53.806;11.598;2023-07-30T10:10:29;28.40;59.70
4406;DHT22;2216;53.806;11.598;2023-07-30T10:12:59;28.30;59.40
4406;DHT22;2216;53.806;11.598;2023-07-30T10:15:28;28.10;59.10
4406;DHT22;2216;53.806;11.598;2023-07-30T10:17:56;27.90;58.90
4406;DHT22;2216;53.806;11.598;2023-07-30T10:23:00;27.50;58.70
4406;DHT22;2216;53.806;11.598;2023-07-30T10:25:48;27.30;59.20
4406;DHT22;2216;53.806;11.598;2023-07-30T10:31:00;27.40;59.80
4406;DHT22;2216;53.806;11.598;2023-07-30T10:33:50;27.40;59.80
4406;DHT22;2216;53.806;11.598;2023-07-30T10:36:40;27.40;59.50
4406;DHT22;2216;53.806;11.598;2023-07-30T10:39:33;27.40;59.60
4406;DHT22;2216;53.806;11.598;2023-07-30T10:42:00;27.40;59.10
4406;DHT22;2216;53.806;11.598;2023-07-30T10:44:28;27.50;59.70
4406;DHT22;2216;53.806;11.598;2023-07-30T10:46:58;27.50;59.70
4406;DHT22;2216;53.806;11.598;2023-07-30T10:49:25;27.50;59.70
4406;DHT22;2216;53.806;11.598;2023-07-30T10:51:56;27.50;59.50
4406;DHT22;2216;53.806;11.598;2023-07-30T10:54:25;27.50;59.30
4406;DHT22;2216;53.806;11.598;2023-07-30T10:56:51;27.50;59.20
4406;DHT22;2216;53.806;11.598;2023-07-30T10:59:17;27.40;59.20
4406;DHT22;2216;53.806;11.598;2023-07-30T11:01:45;27.40;58.80
4406;DHT22;2216;53.806;11.598;2023-07-30T11:04:17;27.30;59.00
4406;DHT22;2216;53.806;11.598;2023-07-30T11:06:48;27.30;58.80
4406;DHT22;2216;53.806;11.598;2023-07-30T11:09:23;27.10;58.70
4406;DHT22;2216;53.806;11.598;2023-07-30T11:11:51;27.00;58.90
4406;DHT22;2216;53.806;11.598;2023-07-30T11:14:22;27.10;59.30
4406;DHT22;2216;53.806;11.598;2023-07-30T11:16:56;27.10;59.30
4406;DHT22;2216;53.806;11.598;2023-07-30T11:19:28;27.10;59.70
4406;DHT22;2216;53.806;11.598;2023-07-30T11:21:56;27.30;59.80
4406;DHT22;2216;53.806;11.598;2023-07-30T11:24:33;27.40;59.90
4406;DHT22;2216;53.806;11.598;2023-07-30T11:27:00;27.50;59.60
4406;DHT22;2216;53.806;11.598;2023-07-30T11:29:26;27.60;59.40
4406;DHT22;2216;53.806;11.598;2023-07-30T11:31:56;27.60;59.00
4406;DHT22;2216;53.806;11.598;2023-07-30T11:34:25;27.60;58.90
4406;DHT22;2216;53.806;11.598;2023-07-30T11:36:51;27.60;59.00
4406;DHT22;2216;53.806;11.598;2023-07-30T11:39:17;27.60;59.00
4406;DHT22;2216;53.806;11.598;2023-07-30T11:41:43;27.60;58.80
4406;DHT22;2216;53.806;11.598;2023-07-30T11:44:33;27.50;58.60
4406;DHT22;2216;53.806;11.598;2023-07-30T11:47:00;27.40;57.90
4406;DHT22;2216;53.806;11.598;2023-07-30T11:49:26;27.30;58.20
4406;DHT22;2216;53.806;11.598;2023-07-30T11:52:10;27.30;58.20
4406;DHT22;2216;53.806;11.598;2023-07-30T11:54:36;27.10;58.30
4406;DHT22;2216;53.806;11.598;2023-07-30T11:57:02;27.10;58.40
4406;DHT22;2216;53.806;11.598;2023-07-30T11:59:28;27.00;58.50
4406;DHT22;2216;53.806;11.598;2023-07-30T12:01:55;26.90;58.50
4406;DHT22;2216;53.806;11.598;2023-07-30T12:04:22;26.90;58.60
4406;DHT22;2216;53.806;11.598;2023-07-30T12:06:51;26.90;58.40
4406;DHT22;2216;53.806;11.598;2023-07-30T12:09:21;26.80;58.40
4406;DHT22;2216;53.806;11.598;2023-07-30T12:11:58;26.80;58.50
4406;DHT22;2216;53.806;11.598;2023-07-30T12:14:29;26.80;58.50
4406;DHT22;2216;53.806;11.598;2023-07-30T12:17:09;26.70;58.20
4406;DHT22;2216;53.806;11.598;2023-07-30T12:19:34;26.60;58.10
4406;DHT22;2216;53.806;11.598;2023-07-30T12:22:03;26.50;58.00
4406;DHT22;2216;53.806;11.598;2023-07-30T12:24:29;26.30;57.80
4406;DHT22;2216;53.806;11.598;2023-07-30T12:26:54;26.20;57.90
4406;DHT22;2216;53.806;11.598;2023-07-30T12:29:20;26.10;57.80
4406;DHT22;2216;53.806;11.598;2023-07-30T12:31:46;26.00;57.90
4406;DHT22;2216;53.806;11.598;2023-07-30T12:34:12;25.80;57.90
4406;DHT22;2216;53.806;11.598;2023-07-30T12:36:38;25.70;57.80
4406;DHT22;2216;53.806;11.598;2023-07-30T12:39:04;25.50;57.80
4406;DHT22;2216;53.806;11.598;2023-07-30T12:41:31;25.40;57.60
4406;DHT22;2216;53.806;11.598;2023-07-30T12:43:56;25.20;57.70
4406;DHT22;2216;53.806;11.598;2023-07-30T12:46:23;25.10;57.90
4406;DHT22;2216;53.806;11.598;2023-07-30T12:48:48;24.90;58.10
4406;DHT22;2216;53.806;11.598;2023-07-30T12:51:14;24.90;58.40
4406;DHT22;2216;53.806;11.598;2023-07-30T12:53:40;24.90;58.70
4406;DHT22;2216;53.806;11.598;2023-07-30T12:56:06;24.70;59.50
4406;DHT22;2216;53.806;11.598;2023-07-30T12:58:31;25.00;59.20
4406;DHT22;2216;53.806;11.598;2023-07-30T13:00:57;25.10;59.10
4406;DHT22;2216;53.806;11.598;2023-07-30T13:03:23;25.30;59.20
4406;DHT22;2216;53.806;11.598;2023-07-30T13:05:48;25.40;59.30
4406;DHT22;2216;53.806;11.598;2023-07-30T13:08:14;25.50;59.00
4406;DHT22;2216;53.806;11.598;2023-07-30T13:10:40;25.60;59.00
4406;DHT22;2216;53.806;11.598;2023-07-30T13:13:05;25.70;59.10
4406;DHT22;2216;53.806;11.598;2023-07-30T13:15:31;25.80;59.30
4406;DHT22;2216;53.806;11.598;2023-07-30T13:17:57;26.00;59.30
4406;DHT22;2216;53.806;11.598;2023-07-30T13:20:22;26.10;58.90
4406;DHT22;2216;53.806;11.598;2023-07-30T13:22:49;26.10;58.80
4406;DHT22;2216;53.806;11.598;2023-07-30T13:25:15;26.20;58.60
4406;DHT22;2216;53.806;11.598;2023-07-30T13:27:41;26.20;59.10
4406;DHT22;2216;53.806;11.598;2023-07-30T13:30:07;26.40;58.80
4406;DHT22;2216;53.806;11.598;2023-07-30T13:32:33;26.50;58.80
4406;DHT22;2216;53.806;11.598;2023-07-30T13:34:59;26.60;58.80
4406;DHT22;2216;53.806;11.598;2023-07-30T13:37:24;26.60;58.70
4406;DHT22;2216;53.806;11.598;2023-07-30T13:39:50;26.70;58.70
4406;DHT22;2216;53.806;11.598;2023-07-30T13:42:16;26.80;58.60
4406;DHT22;2216;53.806;11.598;2023-07-30T13:44:41;26.90;58.50
4406;DHT22;2216;53.806;11.598;2023-07-30T13:47:07;26.90;58.50
4406;DHT22;2216;53.806;11.598;2023-07-30T13:49:33;27.00;58.40
4406;DHT22;2216;53.806;11.598;2023-07-30T13:51:59;27.10;58.50
4406;DHT22;2216;53.806;11.598;2023-07-30T13:54:24;27.10;58.20
4406;DHT22;2216;53.806;11.598;2023-07-30T13:56:50;27.10;57.90
4406;DHT22;2216;53.806;11.598;2023-07-30T13:59:16;27.10;57.80
4406;DHT22;2216;53.806;11.598;2023-07-30T14:01:41;27.10;58.10
4406;DHT22;2216;53.806;11.598;2023-07-30T14:04:07;27.10;57.90
4406;DHT22;2216;53.806;11.598;2023-07-30T14:06:33;26.90;57.70
4406;DHT22;2216;53.806;11.598;2023-07-30T14:08:58;26.80;57.30
4406;DHT22;2216;53.806;11.598;2023-07-30T14:11:27;26.60;57.30
4406;DHT22;2216;53.806;11.598;2023-07-30T14:13:53;26.50;57.40
4406;DHT22;2216;53.806;11.598;2023-07-30T14:16:19;26.40;57.60
4406;DHT22;2216;53.806;11.598;2023-07-30T14:18:44;26.40;57.70
4406;DHT22;2216;53.806;11.598;2023-07-30T14:21:10;26.40;57.80
4406;DHT22;2216;53.806;11.598;2023-07-30T14:23:37;26.50;58.00
4406;DHT22;2216;53.806;11.598;2023-07-30T14:26:03;26.50;58.10
4406;DHT22;2216;53.806;11.598;2023-07-30T14:28:29;26.60;58.10
4406;DHT22;2216;53.806;11.598;2023-07-30T14:30:54;26.60;57.90
4406;DHT22;2216;53.806;11.598;2023-07-30T14:33:20;26.60;57.60
4406;DHT22;2216;53.806;11.598;2023-07-30T14:35:46;26.60;57.70
4406;DHT22;2216;53.806;11.598;2023-07-30T14:38:12;26.80;57.70
4406;DHT22;2216;53.806;11.598;2023-07-30T14:40:38;26.50;57.50
4406;DHT22;2216;53.806;11.598;2023-07-30T14:43:04;26.40;57.00
4406;DHT22;2216;53.806;11.598;2023-07-30T14:45:29;26.30;57.20
4406;DHT22;2216;53.806;11.598;2023-07-30T14:47:55;26.10;57.00
4406;DHT22;2216;53.806;11.598;2023-07-30T14:50:21;26.10;57.20
4406;DHT22;2216;53.806;11.598;2023-07-30T14:52:46;26.00;57.20
4406;DHT22;2216;53.806;11.598;2023-07-30T14:55:12;25.90;57.30
4406;DHT22;2216;53.806;11.598;2023-07-30T14:57:38;25.80;57.20
4406;DHT22;2216;53.806;11.598;2023-07-30T15:00:04;25.70;57.10
4406;DHT22;2216;53.806;11.598;2023-07-30T15:02:30;25.40;56.90
4406;DHT22;2216;53.806;11.598;2023-07-30T15:04:56;25.50;57.10
4406;DHT22;2216;53.806;11.598;2023-07-30T15:07:22;25.40;56.60
4406;DHT22;2216;53.806;11.598;2023-07-30T15:09:52;25.20;55.90
4406;DHT22;2216;53.806;11.598;2023-07-30T15:12:17;24.80;55.90
4406;DHT22;2216;53.806;11.598;2023-07-30T15:14:43;24.50;55.90
4406;DHT22;2216;53.806;11.598;2023-07-30T15:17:09;23.90;55.60
4406;DHT22;2216;53.806;11.598;2023-07-30T15:19:34;23.70;55.90
4406;DHT22;2216;53.806;11.598;2023-07-30T15:22:00;23.40;56.20
4406;DHT22;2216;53.806;11.598;2023-07-30T15:24:26;23.00;56.30
4406;DHT22;2216;53.806;11.598;2023-07-30T15:26:52;22.70;56.40
4406;DHT22;2216;53.806;11.598;2023-07-30T15:29:17;22.40;56.30
4406;DHT22;2216;53.806;11.598;2023-07-30T15:31:44;22.10;56.60
4406;DHT22;2216;53.806;11.598;2023-07-30T15:34:10;21.90;56.80
4406;DHT22;2216;53.806;11.598;2023-07-30T15:36:36;21.60;56.90
4406;DHT22;2216;53.806;11.598;2023-07-30T15:39:02;21.40;57.10
4406;DHT22;2216;53.806;11.598;2023-07-30T15:41:28;21.20;57.20
4406;DHT22;2216;53.806;11.598;2023-07-30T15:43:54;21.00;57.30
4406;DHT22;2216;53.806;11.598;2023-07-30T15:46:19;20.80;57.40
4406;DHT22;2216;53.806;11.598;2023-07-30T15:48:49;20.60;58.00